• Join FlightAware (Why Join?)
  • Login
  • US Flag 
08:50AM EDT


 

Airport Tracker/Info


-or-


 

Live Flight TrackerFlight Track Log ✈ DAL268 ✈ 31-May-2013 ✈ KATL - KJFK

Flight Track Log - Related Links

Times and Time Zones

All times are in EDT time to prevent confusion due to time zone crossing. See the DAL268 flight status page for this flight to view local times or setup timezone preferences in your user account.

Time Position Orientation Groundspeed Altitude Reporting Facility
EDT Latitude Longitude Course Direction KTS MPH feet Rate Location/Type
06:10PM 33.6333 -84.3833 64° Northeast 190 219 2,600  Level Atlanta TRACON
06:11PM 33.6333 -84.3000 90° East 259 298 4,300 2,100 Climbing Atlanta TRACON
06:12PM 33.6333 -84.2000 90° East 282 325 7,100 2,580 Climbing Atlanta TRACON
06:13PM 33.8632 -84.1313 101° East  Level Estimated
06:13PM 33.6333 -84.1167 90° East 298 343 9,300  Level Atlanta TRACON
06:14PM 33.8063 -84.0157 121° Southeast  Level FlightAware Approximate
06:14PM 33.6356 -84.0339 88° East 317 365 11,100  Level Atlanta Center
06:15PM 33.7493 -83.9002 121° Southeast  Level FlightAware Approximate
06:15PM 33.6419 -83.9292 86° East 317 365 12,700  Level Atlanta Center
06:16PM 33.8261 -83.8028 64° Northeast  Level Estimated
06:16PM 33.6478 -83.8042 87° East 347 399 13,600  Level Atlanta Center
06:17PM 33.6581 -83.6644 85° East 401 461 15,200 1,800 Climbing Atlanta Center
06:18PM 33.7033 -83.5294 68° East 416 479 17,200 1,740 Climbing Atlanta Center
06:19PM 33.7592 -83.3967 63° Northeast 436 502 18,700 1,560 Climbing Atlanta Center
06:20PM 33.8208 -83.2436 64° Northeast 448 516 20,400 1,620 Climbing Atlanta Center
06:21PM 33.8783 -83.1006 64° Northeast 454 522 22,000 1,500 Climbing Atlanta Center
06:22PM 33.9356 -82.9572 64° Northeast 468 539 23,400 1,440 Climbing Atlanta Center
06:23PM 33.9928 -82.8111 65° Northeast 468 539 24,900 1,560 Climbing Atlanta Center
06:24PM 34.0497 -82.6700 64° Northeast 468 539 26,600 1,560 Climbing Atlanta Center
06:25PM 34.1042 -82.5286 65° Northeast 468 539 28,100 1,380 Climbing Atlanta Center
06:26PM 34.1547 -82.4019 64° Northeast 468 539 29,400 1,320 Climbing Atlanta Center
06:27PM 34.2072 -82.2656 65° Northeast 461 531 30,800 1,080 Climbing Atlanta Center
06:28PM 34.2636 -82.1311 63° Northeast 449 517 31,600 780 Climbing Atlanta Center
06:29PM 34.3283 -81.9989 59° Northeast 443 510 32,400 660 Climbing Atlanta Center
06:30PM 34.3931 -81.8739 58° Northeast 443 510 33,000 300 Climbing Atlanta Center
06:31PM 34.4553 -81.7439 60° Northeast 443 510 33,000  Level Atlanta Center
06:32PM 34.5194 -81.6136 59° Northeast 443 510 33,000  Level Atlanta Center
06:33PM 34.5878 -81.4828 58° Northeast 448 516 33,000  Level Atlanta Center
06:34PM 34.6578 -81.3392 59° Northeast 444 511 33,000  Level Atlanta Center
06:35PM 34.7217 -81.2033 60° Northeast 450 518 33,000  Level Atlanta Center
06:36PM 34.7872 -81.0697 59° Northeast 457 526 33,000  Level Atlanta Center
06:37PM 34.8528 -80.9381 59° Northeast 449 517 33,000  Level Atlanta Center
06:38PM 34.9181 -80.8014 60° Northeast 454 522 33,000  Level Atlanta Center
06:39PM 34.9856 -80.6644 59° Northeast 465 535 33,000  Level Atlanta Center
06:40PM 35.0425 -80.5403 61° Northeast 465 535 33,000  Level Atlanta Center
06:41PM 35.1114 -80.4003 59° Northeast 472 543 33,000  Level Atlanta Center
06:43PM 35.2375 -80.1261 61° Northeast 461 531 33,000  Level Washington Center
06:44PM 35.2931 -79.9842 64° Northeast 461 531 33,000  Level Washington Center
06:45PM 35.3400 -79.8342 69° East 461 531 33,000  Level Washington Center
06:46PM 35.3850 -79.6836 70° East 466 536 33,000  Level Washington Center
06:47PM 35.4317 -79.5331 69° East 466 536 33,000  Level Washington Center
06:48PM 35.4783 -79.3872 69° East 459 528 33,000  Level Washington Center
06:49PM 35.5267 -79.2367 68° East 464 534 33,000  Level Washington Center
06:50PM 35.5683 -79.1031 69° East 464 534 33,000  Level Washington Center
06:51PM 35.6189 -78.9417 69° East 464 534 33,000  Level Washington Center
06:52PM 35.6692 -78.7778 69° East 458 527 33,000  Level Washington Center
06:53PM 35.7150 -78.6261 70° East 463 533 33,000  Level Washington Center
06:54PM 35.7583 -78.4742 71° East 463 533 33,000  Level Washington Center
06:55PM 35.8014 -78.3247 70° East 463 533 33,000  Level Washington Center
06:56PM 35.8444 -78.1750 70° East 463 533 33,000  Level Washington Center
06:57PM 35.8872 -78.0250 71° East 463 533 33,000  Level Washington Center
06:58PM 35.9297 -77.8750 71° East 463 533 33,000  Level Washington Center
06:59PM 35.9744 -77.7247 70° East 463 533 33,000  Level Washington Center
07:00PM 36.0433 -77.5958 57° Northeast 452 520 33,000  Level Washington Center
07:01PM 36.1206 -77.4717 52° Northeast 457 526 33,000  Level Washington Center
07:02PM 36.1933 -77.3472 54° Northeast 451 519 33,000  Level Washington Center
07:03PM 36.2475 -77.2069 64° Northeast 443 510 33,000  Level Washington Center
07:04PM 36.2911 -77.0608 70° East 443 510 33,000  Level Washington Center
07:05PM 36.3367 -76.9147 69° East 443 510 33,000  Level Washington Center
07:06PM 36.3819 -76.7711 69° East 449 517 33,000  Level Washington Center
07:07PM 36.4269 -76.6219 69° East 449 517 33,000  Level Washington Center
07:08PM 36.4678 -76.4908 69° East 449 517 33,000  Level Washington Center
07:09PM 36.5125 -76.3414 70° East 449 517 33,000 -60 Level Washington Center
07:10PM 36.5592 -76.1969 68° East 449 517 32,900 -60 Descending Washington Center
07:11PM 36.6078 -76.0603 66° East 444 511 32,900  Level Washington Center
07:12PM 36.7125 -75.9908 28° Northeast 401 461 33,000  Climbing Washington Center
07:13PM 36.8272 -75.9447 18° North 401 461 33,000  Level Washington Center
07:14PM 36.9422 -75.9011 17° North 415 478 33,000  Level Washington Center
07:15PM 37.0675 -75.8575 16° North 429 494 33,000  Level Washington Center
07:16PM 37.1822 -75.8133 17° North 424 488 33,000  Level Washington Center
07:17PM 37.2950 -75.7694 17° North 418 481 33,000  Level Washington Center
07:18PM 37.4078 -75.7253 17° North 418 481 33,000  Level Washington Center
07:19PM 37.5225 -75.6783 18° North 418 481 33,000  Level Washington Center
07:20PM 37.6372 -75.6389 15° North 418 481 33,000  Level Washington Center
07:21PM 37.7497 -75.5917 18° North 424 488 33,000  Level Washington Center
07:22PM 37.8667 -75.5444 18° North 424 488 33,000  Level Washington Center
07:23PM 37.9833 -75.5022 16° North 424 488 33,000  Level Washington Center
07:24PM 38.0939 -75.4439 23° Northeast 424 488 33,000  Level Washington Center
07:25PM 38.2064 -75.3803 24° Northeast 424 488 33,000  Level Washington Center
07:26PM 38.2917 -75.3272 26° Northeast 429 494 33,000  Level Washington Center
07:27PM 38.4208 -75.2444 27° Northeast 429 494 33,000  Level Washington Center
07:28PM 38.5269 -75.1669 30° Northeast 429 494 33,000  Level Washington Center
07:29PM 38.6350 -75.1000 26° Northeast 429 494 33,000  Level Washington Center
07:30PM 38.7431 -75.0300 27° Northeast 429 494 33,000  Level Washington Center
07:31PM 38.8511 -74.9600 27° Northeast 429 494 33,000  Level Washington Center
07:32PM 38.9611 -74.8894 27° Northeast 429 494 33,000  Level Washington Center
07:33PM 39.0669 -74.8217 26° Northeast 429 494 33,000  Level Washington Center
07:34PM 39.1664 -74.7322 35° Northeast 429 494 33,000 -1,320 Level Washington Center
07:36PM 39.3642 -74.5114 41° Northeast 431 496 29,000 -2,580 Descending New York Center
07:37PM 39.4592 -74.4089 40° Northeast 431 496 25,000 -4,260 Descending New York Center
07:38PM 39.5564 -74.3008 41° Northeast 442 509 20,300 -3,960 Descending New York Center
07:39PM 39.6511 -74.1950 41° Northeast 448 516 17,200 -2,400 Descending New York Center
07:40PM 39.7511 -74.1269 28° Northeast 405 466 15,600 -1,440 Descending New York Center
07:41PM 39.8403 -74.1475 350° North 364 419 14,400 -1,320 Descending New York Center
07:42PM 39.9300 -74.1439 North 339 390 13,000 -1,500 Descending New York Center
07:43PM 39.9769 -74.0322 61° Northeast 287 330 11,400 -1,080 Descending New York Center
07:44PM 40.0025 -73.9278 72° East 297 342 11,000 -300 Descending New York Center
07:45PM 40.0322 -73.8289 69° East 297 342 10,900 -600 Descending New York Center
07:46PM 40.1047 -73.7722 31° Northeast 285 328 9,900 -1,380 Descending New York Center
07:47PM 40.1667 -73.7167 34° Northeast 291 335 8,400 -1,620 Descending New York TRACON
07:48PM 40.2333 -73.6667 30° Northeast 291 335 6,900 -1,500 Descending New York TRACON
07:49PM 40.3000 -73.6167 30° Northeast 288 331 5,400 -1,260 Descending New York TRACON
07:50PM 40.3500 -73.5333 52° Northeast 284 327 4,400 -720 Descending New York TRACON
07:51PM 40.4167 -73.5667 339° North 270 311 4,100 -240 Descending New York TRACON
07:52PM 40.4833 -73.5333 21° North 283 326 4,000 -60 Descending New York TRACON
07:53PM 40.5500 -73.4667 37° Northeast 250 288 4,000  Level New York TRACON
07:54PM 40.6000 -73.4167 37° Northeast 239 275 4,000 -60 Level New York TRACON
07:55PM 40.6500 -73.4000 14° North 238 274 3,900 -540 Descending New York TRACON
07:56PM 40.7167 -73.4167 349° North 230 265 3,000 -480 Descending New York TRACON
07:57PM 40.7667 -73.4500 333° Northwest 221 254 3,000 -360 Level New York TRACON
07:58PM 40.8167 -73.5000 323° Northwest 203 234 2,300 -480 Descending New York TRACON
07:59PM 40.8167 -73.5667 270° West 181 208 2,000 -180 Descending New York TRACON
08:00PM 40.7833 -73.6167 229° Southwest 178 205 2,000  Level New York TRACON